Time;durP1;ratioP1;P1;durP2;ratioP2;P2;SDS_P1;SDS_P2;PMS_P1;PMS_P2;Temp;Humidity;BMP_temperature;BMP_pressure;BME280_temperature;BME280_humidity;BME280_pressure;Samples;Min_cycle;Max_cycle;Signal;HPM_P1;HPM_P2
2021/12/17 05:18:37;;;;;;;9.48;2.25;;;23.80;64.40;;;;;;5095164;28;20418;-72
2021/12/17 05:21:07;;;;;;;10.73;2.53;;;23.80;65.20;;;;;;5093139;28;20024;-72
2021/12/17 05:23:40;;;;;;;6.20;2.03;;;23.80;63.80;;;;;;5093643;28;20059;-72
2021/12/17 05:26:10;;;;;;;13.48;2.33;;;23.80;63.70;;;;;;5111018;28;20028;-71
2021/12/17 05:28:37;;;;;;;10.27;2.65;;;23.80;64.90;;;;;;5111452;28;20055;-72
2021/12/17 05:31:04;;;;;;;11.95;2.50;;;23.80;64.80;;;;;;5093393;28;20062;-71
2021/12/17 05:33:32;;;;;;;11.57;2.35;;;23.80;63.30;;;;;;5111197;28;20028;-72
2021/12/17 05:35:59;;;;;;;9.75;2.20;;;23.80;64.30;;;;;;5111069;28;20126;-72
2021/12/17 05:38:29;;;;;;;6.97;2.30;;;23.80;64.50;;;;;;5111392;28;20052;-72
2021/12/17 05:40:56;;;;;;;8.30;1.90;;;23.80;64.80;;;;;;5111052;28;20024;-72
2021/12/17 05:43:23;;;;;;;5.68;2.00;;;23.80;65.10;;;;;;5093118;28;20116;-71
2021/12/17 05:48:21;;;;;;;8.00;2.40;;;23.80;63.80;;;;;;5093175;28;20032;-72
2021/12/17 05:50:51;;;;;;;8.88;2.25;;;23.80;63.80;;;;;;5093104;28;20030;-72
2021/12/17 05:53:18;;;;;;;5.10;1.75;;;23.80;64.30;;;;;;5092691;28;20034;-72
2021/12/17 05:55:45;;;;;;;6.05;2.03;;;23.80;64.50;;;;;;5111153;28;20036;-72
2021/12/17 05:58:13;;;;;;;7.15;2.10;;;23.80;64.40;;;;;;5092833;28;20059;-71
2021/12/17 06:00:41;;;;;;;7.60;1.90;;;23.80;64.00;;;;;;5110966;28;20081;-71
2021/12/17 06:03:09;;;;;;;6.03;1.98;;;23.80;64.20;;;;;;5076841;28;20401;-72
2021/12/17 06:05:36;;;;;;;12.30;4.20;;;23.80;65.30;;;;;;5074396;28;20023;-73
2021/12/17 06:08:04;;;;;;;10.43;3.78;;;23.80;66.40;;;;;;5110363;28;20115;-71
2021/12/17 06:10:32;;;;;;;7.57;1.92;;;23.80;67.20;;;;;;5091882;28;20520;-71
2021/12/17 06:12:59;;;;;;;7.13;2.50;;;23.80;67.50;;;;;;5110686;28;20040;-70
2021/12/17 06:15:26;;;;;;;6.35;1.67;;;23.80;67.60;;;;;;5110542;28;20032;-70
2021/12/17 06:17:54;;;;;;;7.15;2.08;;;23.80;68.20;;;;;;5110499;28;20035;-71
2021/12/17 06:20:22;;;;;;;14.32;2.33;;;23.80;68.50;;;;;;5092413;28;20023;-70
2021/12/17 06:22:50;;;;;;;6.93;2.15;;;23.80;68.50;;;;;;5110723;28;20031;-71
2021/12/17 06:25:17;;;;;;;9.93;1.88;;;23.80;67.70;;;;;;5074816;28;20038;-70
2021/12/17 06:27:44;;;;;;;10.82;2.70;;;23.70;67.70;;;;;;5092661;28;20478;-70
2021/12/17 06:30:13;;;;;;;11.35;2.60;;;23.70;68.10;;;;;;5114018;28;20028;-70
2021/12/17 06:32:41;;;;;;;11.40;2.22;;;23.70;68.20;;;;;;5096628;28;20039;-71
2021/12/17 06:35:08;;;;;;;9.90;2.25;;;23.70;68.40;;;;;;5114528;28;20027;-72
2021/12/17 06:37:37;;;;;;;8.30;2.10;;;23.70;68.30;;;;;;5114425;28;20405;-72
2021/12/17 06:40:05;;;;;;;7.43;3.03;;;23.70;69.20;;;;;;5113625;28;20027;-71
2021/12/17 06:42:32;;;;;;;7.82;2.10;;;23.70;69.00;;;;;;5114196;28;20031;-72
2021/12/17 06:45:04;;;;;;;10.23;3.30;;;23.70;69.10;;;;;;5114255;28;20110;-71
2021/12/17 06:47:35;;;;;;;11.50;3.25;;;23.70;69.60;;;;;;5114581;28;20412;-72
2021/12/17 06:55:45;;;;;;;12.30;3.95;;;23.60;69.40;;;;;;5113992;28;20058;-72
2021/12/17 07:01:05;;;;;;;12.13;2.38;;;23.70;69.60;;;;;;5113908;28;20039;-71
2021/12/17 07:09:27;;;;;;;6.40;2.17;;;23.60;69.70;;;;;;5114121;28;20028;-72
2021/12/17 07:17:32;;;;;;;12.05;2.33;;;23.50;70.00;;;;;;5113908;28;20050;-72
2021/12/17 07:33:11;;;;;;;5.47;2.05;;;23.30;70.50;;;;;;5103859;28;20402;-71
2021/12/17 07:35:52;;;;;;;10.82;2.13;;;23.30;70.50;;;;;;5077110;28;20667;-72
2021/12/17 07:41:05;;;;;;;6.72;2.00;;;23.30;70.90;;;;;;5090454;28;20512;-72
2021/12/17 07:43:38;;;;;;;14.38;2.55;;;23.30;70.30;;;;;;5110943;28;20031;-73
2021/12/17 07:46:12;;;;;;;6.72;2.30;;;23.30;69.60;;;;;;5096211;28;20024;-72
2021/12/17 07:48:39;;;;;;;8.70;2.83;;;23.30;69.70;;;;;;5094775;28;20028;-74
2021/12/17 07:51:08;;;;;;;10.95;2.10;;;23.30;70.40;;;;;;5093356;28;20059;-71
2021/12/17 07:53:36;;;;;;;6.65;2.30;;;23.30;70.20;;;;;;5093773;28;20397;-71
2021/12/17 07:56:04;;;;;;;10.20;2.33;;;23.30;70.10;;;;;;5078224;28;20042;-71
2021/12/17 07:58:31;;;;;;;11.30;2.80;;;23.20;69.80;;;;;;5112716;28;20485;-71
2021/12/17 08:00:59;;;;;;;10.27;2.30;;;23.30;70.10;;;;;;5077715;28;20078;-71
2021/12/17 08:03:26;;;;;;;6.20;2.47;;;23.20;70.20;;;;;;5112301;28;20043;-71
2021/12/17 08:05:53;;;;;;;7.45;2.42;;;23.20;70.30;;;;;;5112273;28;20042;-71
2021/12/17 08:08:21;;;;;;;10.25;4.68;;;23.20;70.20;;;;;;5112449;28;20054;-71
2021/12/17 08:10:48;;;;;;;16.73;6.60;;;23.20;70.20;;;;;;5112922;28;20042;-71
2021/12/17 08:13:22;;;;;;;10.25;3.78;;;23.20;70.20;;;;;;5112546;28;20036;-71
2021/12/17 08:16:02;;;;;;;11.38;2.75;;;23.20;70.50;;;;;;5095087;28;20047;-72
2021/12/17 08:24:21;;;;;;;13.93;4.78;;;23.20;70.80;;;;;;5096177;28;20519;-70
2021/12/17 09:46:32;;;;;;;10.02;2.63;;;22.70;72.70;;;;;;5097058;28;20561;-67
2021/12/17 09:48:59;;;;;;;8.05;2.10;;;22.70;72.90;;;;;;5110094;28;20055;-68
2021/12/17 09:51:27;;;;;;;6.95;2.10;;;22.70;73.00;;;;;;5109969;28;20039;-67
2021/12/17 09:54:02;;;;;;;10.52;2.15;;;22.70;73.00;;;;;;5111045;28;20027;-71
2021/12/17 09:56:30;;;;;;;7.90;2.17;;;22.70;73.10;;;;;;5075554;28;20035;-69
2021/12/17 09:58:57;;;;;;;7.68;2.25;;;22.70;73.00;;;;;;5091273;28;20065;-69
2021/12/17 10:01:32;;;;;;;5.95;2.10;;;22.70;73.00;;;;;;5110199;28;20055;-68
2021/12/17 10:04:25;;;;;;;8.80;2.30;;;22.70;73.10;;;;;;5112007;28;20435;-69
2021/12/17 10:06:52;;;;;;;8.40;1.90;;;22.70;73.10;;;;;;5104315;28;20046;-69
2021/12/17 10:09:20;;;;;;;7.88;2.22;;;22.70;73.20;;;;;;5114943;28;20051;-71
2021/12/17 10:12:08;;;;;;;9.63;2.30;;;22.70;73.40;;;;;;5096448;28;20103;-73
2021/12/17 10:14:35;;;;;;;6.85;2.55;;;22.70;73.40;;;;;;5080199;28;20039;-72
2021/12/17 10:18:02;;;;;;;;;;;;;;;;;;;;;
2021/12/17 10:20:45;;;;;;;11.25;2.70;;;22.60;73.50;;;;;;4992435;28;20407;-72
2021/12/17 10:23:13;;;;;;;7.45;2.03;;;22.60;73.60;;;;;;5063630;28;20036;-73
2021/12/17 10:25:44;;;;;;;5.68;1.90;;;22.60;73.60;;;;;;5115141;28;20477;-72
2021/12/17 10:28:11;;;;;;;9.02;2.40;;;22.60;73.70;;;;;;5114289;28;20036;-72
2021/12/17 10:30:41;;;;;;;11.70;2.78;;;22.60;73.70;;;;;;5096938;28;20042;-72
2021/12/17 10:33:11;;;;;;;10.00;2.30;;;22.60;73.90;;;;;;5114988;28;20385;-72
2021/12/17 10:35:40;;;;;;;10.73;2.67;;;22.60;74.00;;;;;;5114001;28;20050;-72
2021/12/17 10:38:11;;;;;;;11.43;2.55;;;22.60;74.00;;;;;;5113337;28;20043;-72
2021/12/17 10:40:46;;;;;;;17.63;3.15;;;22.60;74.10;;;;;;5096964;28;20586;-71
2021/12/17 10:46:05;;;;;;;8.82;2.17;;;22.60;74.20;;;;;;5114162;28;20056;-72
2021/12/17 10:51:13;;;;;;;11.00;2.05;;;22.60;74.50;;;;;;5096138;28;20031;-72
2021/12/17 10:53:51;;;;;;;12.35;2.65;;;22.60;74.50;;;;;;5114234;28;20045;-71
2021/12/17 10:56:18;;;;;;;9.05;2.70;;;22.60;74.80;;;;;;5079309;28;20035;-71
2021/12/17 10:59:02;;;;;;;10.43;2.50;;;22.60;74.90;;;;;;5096159;28;20047;-71
2021/12/17 11:01:46;;;;;;;7.80;2.10;;;22.60;75.00;;;;;;5096737;28;20036;-71
2021/12/17 11:04:26;;;;;;;11.65;2.60;;;22.50;75.10;;;;;;5097535;28;20114;-71
2021/12/17 11:07:21;;;;;;;13.95;2.50;;;22.50;75.30;;;;;;5113108;28;20039;-71
2021/12/17 11:09:55;;;;;;;10.00;2.35;;;22.50;75.30;;;;;;5114515;28;20031;-71
2021/12/17 11:12:34;;;;;;;13.80;2.42;;;22.50;75.60;;;;;;5114082;28;20046;-71
2021/12/17 11:15:18;;;;;;;9.25;2.97;;;22.50;75.70;;;;;;5112943;28;20035;-71
2021/12/17 11:17:50;;;;;;;7.32;2.08;;;22.50;75.80;;;;;;5113289;28;20039;-72
2021/12/17 11:20:31;;;;;;;6.70;1.98;;;22.50;75.80;;;;;;5113713;28;20034;-71
2021/12/17 11:23:07;;;;;;;10.77;2.55;;;22.40;75.70;;;;;;5093423;28;20036;-72
2021/12/17 11:25:35;;;;;;;12.20;3.05;;;22.50;75.80;;;;;;5096900;28;20363;-72
2021/12/17 11:28:03;;;;;;;13.38;2.50;;;22.40;75.70;;;;;;5126882;27;20034;-72
2021/12/17 11:30:32;;;;;;;10.43;2.83;;;22.40;75.90;;;;;;5094472;28;20028;-72
2021/12/17 11:33:02;;;;;;;8.30;2.17;;;22.40;75.90;;;;;;5112782;28;20034;-72
2021/12/17 11:35:30;;;;;;;10.70;2.75;;;22.40;75.90;;;;;;5095489;28;20477;-72
2021/12/17 11:38:02;;;;;;;10.90;2.47;;;22.30;76.00;;;;;;5094517;28;20048;-72
2021/12/17 11:40:32;;;;;;;8.50;2.30;;;22.30;76.10;;;;;;5095195;28;20034;-72
2021/12/17 11:43:20;;;;;;;7.45;2.50;;;22.40;76.10;;;;;;5094744;28;20582;-72
2021/12/17 11:45:58;;;;;;;9.57;2.15;;;22.30;76.20;;;;;;5111790;28;20405;-72
2021/12/17 11:48:26;;;;;;;9.60;2.42;;;22.30;76.30;;;;;;5073871;28;20036;-72
2021/12/17 11:51:17;;;;;;;11.40;2.38;;;22.30;76.40;;;;;;5077374;28;20028;-72
2021/12/17 11:53:56;;;;;;;9.30;2.13;;;22.30;76.40;;;;;;5100553;28;20086;-72
2021/12/17 11:56:52;;;;;;;10.98;2.78;;;22.30;76.40;;;;;;5112614;28;20036;-72
2021/12/17 11:59:30;;;;;;;9.38;2.28;;;22.30;76.50;;;;;;5110308;28;20063;-72
2021/12/17 12:02:01;;;;;;;10.57;2.50;;;22.30;76.40;;;;;;5113043;28;20059;-72
2021/12/17 12:04:34;;;;;;;10.48;2.38;;;22.30;76.40;;;;;;5113233;28;20055;-72
2021/12/17 12:07:02;;;;;;;12.93;2.63;;;22.30;76.50;;;;;;5112486;28;20065;-72
2021/12/17 12:10:00;;;;;;;10.10;2.45;;;22.30;76.50;;;;;;5112339;28;20124;-72
2021/12/17 12:12:40;;;;;;;11.55;2.42;;;22.30;76.60;;;;;;5112469;28;20043;-72
2021/12/17 12:15:23;;;;;;;8.25;2.55;;;22.30;76.50;;;;;;5112337;28;20024;-72
2021/12/17 12:18:02;;;;;;;14.45;2.13;;;22.30;76.40;;;;;;5112800;28;20504;-72
2021/12/17 12:20:51;;;;;;;19.40;3.05;;;22.30;76.40;;;;;;5112574;28;20032;-72
2021/12/17 12:23:19;;;;;;;15.75;3.00;;;22.20;76.50;;;;;;5092146;28;20408;-72
2021/12/17 12:25:48;;;;;;;10.80;2.65;;;22.30;76.50;;;;;;5111379;28;20032;-72
2021/12/17 12:28:15;;;;;;;14.43;3.13;;;22.30;76.50;;;;;;5077494;28;20129;-72
2021/12/17 12:30:44;;;;;;;8.45;2.45;;;22.20;76.40;;;;;;5094268;28;20126;-72
2021/12/17 12:33:13;;;;;;;15.10;2.45;;;22.20;76.30;;;;;;5094503;28;20481;-72
2021/12/17 12:35:40;;;;;;;11.88;2.70;;;22.20;76.40;;;;;;5077559;28;20050;-72
2021/12/17 12:38:19;;;;;;;15.73;3.25;;;22.20;76.30;;;;;;5093773;28;20024;-72
2021/12/17 12:40:55;;;;;;;8.65;2.53;;;22.20;76.30;;;;;;5078596;28;20444;-72
2021/12/17 12:43:40;;;;;;;13.55;3.08;;;22.10;76.40;;;;;;5091233;28;20074;-73
2021/12/17 12:46:09;;;;;;;9.93;2.70;;;22.20;76.40;;;;;;5069387;28;20095;-72
2021/12/17 12:48:38;;;;;;;10.02;3.47;;;22.20;76.30;;;;;;5057165;28;20040;-72
2021/12/17 12:51:22;;;;;;;12.80;2.80;;;22.20;76.20;;;;;;5040010;28;20056;-72
2021/12/17 12:54:09;;;;;;;6.40;2.20;;;22.20;76.30;;;;;;5073680;28;20024;-72
2021/12/17 12:56:39;;;;;;;11.57;2.72;;;22.10;76.30;;;;;;5076407;28;20044;-72
2021/12/17 12:59:07;;;;;;;9.35;2.58;;;22.10;76.20;;;;;;5112039;28;20028;-71
2021/12/17 13:01:34;;;;;;;9.02;2.30;;;22.10;76.20;;;;;;5105784;28;20078;-71
2021/12/17 13:04:07;;;;;;;8.95;2.63;;;22.00;76.20;;;;;;5073196;28;20028;-71
2021/12/17 13:06:34;;;;;;;8.77;2.80;;;22.00;76.20;;;;;;5111944;28;20042;-71
2021/12/17 13:09:02;;;;;;;12.82;3.13;;;22.00;76.30;;;;;;5090364;28;20036;-71
2021/12/17 13:11:29;;;;;;;10.52;2.25;;;22.00;76.30;;;;;;5068618;28;20037;-71
2021/12/17 13:13:59;;;;;;;9.65;2.30;;;22.00;76.40;;;;;;5060076;28;20031;-71
2021/12/17 13:24:17;;;;;;;8.45;2.35;;;22.00;76.50;;;;;;5069565;28;20036;-71
2021/12/17 13:26:47;;;;;;;10.85;2.53;;;21.90;76.60;;;;;;5076818;28;20070;-71
2021/12/17 13:29:24;;;;;;;9.27;2.10;;;22.00;76.60;;;;;;5112123;28;20035;-71
2021/12/17 13:31:55;;;;;;;11.27;2.40;;;21.90;76.60;;;;;;5103274;28;20040;-71
2021/12/17 13:34:24;;;;;;;11.05;2.28;;;22.00;76.70;;;;;;5097074;28;20031;-71
2021/12/17 13:36:59;;;;;;;8.35;2.55;;;21.90;76.70;;;;;;5111732;28;20039;-71
2021/12/17 13:39:38;;;;;;;9.15;2.58;;;21.90;76.80;;;;;;5092921;28;20028;-71
2021/12/17 13:42:05;;;;;;;8.75;2.47;;;21.80;77.00;;;;;;5066242;28;20783;-71
2021/12/17 13:44:35;;;;;;;9.73;2.70;;;21.90;77.00;;;;;;5098779;28;20036;-71
2021/12/17 13:47:15;;;;;;;8.00;2.30;;;21.80;77.10;;;;;;5093332;28;20385;-71
2021/12/17 13:49:47;;;;;;;9.43;2.03;;;21.80;77.10;;;;;;5111330;28;20067;-71
2021/12/17 13:52:14;;;;;;;9.77;2.22;;;21.80;77.10;;;;;;5080558;28;20054;-71
2021/12/17 13:54:41;;;;;;;7.35;2.25;;;21.80;77.20;;;;;;5097295;28;20377;-71
2021/12/17 13:57:14;;;;;;;10.00;2.50;;;21.80;77.20;;;;;;5092906;28;20548;-71
2021/12/17 13:59:41;;;;;;;10.65;2.78;;;21.80;77.20;;;;;;5094053;28;20102;-71
2021/12/17 14:02:16;;;;;;;10.70;2.50;;;21.80;77.40;;;;;;5078602;28;20024;-71
2021/12/17 14:04:44;;;;;;;9.57;2.45;;;21.80;77.40;;;;;;5059850;28;20450;-71
2021/12/17 14:07:12;;;;;;;8.38;2.92;;;21.80;77.50;;;;;;5076519;28;20424;-71
2021/12/17 14:09:39;;;;;;;15.30;3.03;;;21.70;77.50;;;;;;5092644;28;20497;-71
2021/12/17 14:12:27;;;;;;;9.50;2.83;;;21.70;77.40;;;;;;5096677;28;20422;-71
2021/12/17 14:15:05;;;;;;;14.38;2.88;;;21.80;77.30;;;;;;5082825;28;20036;-71
2021/12/17 14:17:40;;;;;;;11.65;2.55;;;21.70;77.50;;;;;;5090605;28;20379;-71
2021/12/17 14:20:15;;;;;;;10.98;2.42;;;21.70;77.60;;;;;;5090791;28;20024;-71
2021/12/17 14:22:43;;;;;;;9.63;2.72;;;21.70;77.40;;;;;;5071441;28;20035;-71
2021/12/17 14:25:39;;;;;;;9.15;2.20;;;21.70;77.40;;;;;;5091028;28;20032;-71
2021/12/17 14:28:13;;;;;;;13.55;2.80;;;21.70;77.50;;;;;;5111033;28;20083;-71
2021/12/17 14:30:42;;;;;;;11.30;2.97;;;21.70;77.50;;;;;;5065372;28;20462;-71
2021/12/17 14:33:17;;;;;;;12.25;2.55;;;21.70;77.50;;;;;;5056197;28;20031;-71
2021/12/17 14:35:55;;;;;;;10.02;2.80;;;21.60;77.60;;;;;;5083088;28;20378;-71
2021/12/17 14:38:59;;;;;;;10.57;2.63;;;21.60;77.60;;;;;;5110895;28;20036;-71
2021/12/17 14:41:35;;;;;;;10.75;2.80;;;21.60;77.70;;;;;;5076914;28;20029;-71
2021/12/17 14:44:39;;;;;;;9.38;2.22;;;21.60;77.70;;;;;;5093951;28;20120;-71
2021/12/17 14:47:26;;;;;;;6.82;2.20;;;21.60;77.80;;;;;;5110023;28;20527;-71
2021/12/17 14:59:55;;;;;;;11.68;2.92;;;21.50;78.10;;;;;;5094156;28;20426;-71
2021/12/17 15:03:43;;;;;;;7.20;2.42;;;21.40;78.30;;;;;;5075997;28;20040;-71
2021/12/17 15:06:15;;;;;;;17.92;3.15;;;21.40;78.50;;;;;;5093774;28;20051;-70
2021/12/17 15:08:43;;;;;;;10.05;2.58;;;21.30;78.60;;;;;;5093724;28;20032;-71
2021/12/17 15:11:25;;;;;;;5.82;2.30;;;21.30;78.60;;;;;;5087159;28;20055;-71
2021/12/17 15:13:53;;;;;;;5.80;2.00;;;21.30;78.80;;;;;;5077965;28;20054;-71
2021/12/17 15:16:20;;;;;;;12.40;2.67;;;21.20;78.90;;;;;;5093466;28;20101;-71
2021/12/17 15:18:47;;;;;;;10.75;2.20;;;21.30;78.90;;;;;;5075765;28;20442;-71
2021/12/17 15:21:14;;;;;;;8.65;2.47;;;21.30;78.90;;;;;;5101346;28;20382;-71
2021/12/17 15:23:42;;;;;;;8.00;2.90;;;21.30;79.00;;;;;;5093629;28;20028;-72
2021/12/17 15:26:09;;;;;;;11.10;3.10;;;21.20;78.90;;;;;;5075811;28;20028;-71
2021/12/17 15:28:36;;;;;;;35.90;21.67;;;21.20;79.10;;;;;;5092567;28;20116;-71
2021/12/17 15:31:06;;;;;;;29.67;21.73;;;21.30;79.10;;;;;;5098180;28;20071;-72
2021/12/17 15:33:36;;;;;;;9.18;2.97;;;21.20;79.30;;;;;;5093195;28;20028;-72
2021/12/17 15:36:04;;;;;;;8.88;2.40;;;21.20;79.30;;;;;;5090511;28;20367;-72
2021/12/17 15:38:31;;;;;;;10.23;2.85;;;21.20;79.30;;;;;;5073046;28;20425;-72
2021/12/17 15:40:58;;;;;;;10.23;2.50;;;21.10;79.30;;;;;;5072726;28;20033;-72
2021/12/17 15:43:26;;;;;;;4.95;1.90;;;21.10;79.50;;;;;;5075571;28;20036;-72
2021/12/17 15:45:53;;;;;;;10.15;2.88;;;21.10;79.60;;;;;;5079376;28;20056;-72
2021/12/17 15:48:21;;;;;;;11.35;2.65;;;21.10;79.60;;;;;;5078984;28;20031;-72
2021/12/17 15:50:48;;;;;;;10.07;2.75;;;21.00;79.60;;;;;;5112957;28;20077;-72
2021/12/17 15:53:16;;;;;;;11.95;2.53;;;21.00;79.80;;;;;;5094419;28;20392;-72
2021/12/17 15:55:43;;;;;;;7.97;2.55;;;21.00;79.70;;;;;;5113640;28;20433;-73
2021/12/17 15:58:11;;;;;;;7.95;2.30;;;21.00;79.70;;;;;;5113289;28;20088;-72
2021/12/17 16:00:38;;;;;;;9.43;2.35;;;21.00;79.90;;;;;;5094908;28;20050;-73
2021/12/17 16:03:13;;;;;;;12.13;2.80;;;21.00;79.90;;;;;;5112609;28;20080;-72
2021/12/17 16:05:41;;;;;;;10.27;2.50;;;21.00;80.00;;;;;;5095943;28;20024;-73
2021/12/17 16:08:08;;;;;;;11.25;2.78;;;21.00;80.00;;;;;;5112811;28;20031;-73
2021/12/17 16:21:09;;;;;;;11.43;2.22;;;20.90;80.10;;;;;;5112209;28;20023;-73
2021/12/17 16:23:38;;;;;;;9.25;2.58;;;21.00;80.20;;;;;;5060515;28;20136;-73
2021/12/17 16:26:06;;;;;;;6.30;2.15;;;20.90;80.10;;;;;;5075896;28;20036;-72
2021/12/17 16:28:33;;;;;;;7.07;2.28;;;20.90;80.20;;;;;;5058637;28;20036;-73
2021/12/17 16:31:15;;;;;;;10.98;2.55;;;20.90;80.20;;;;;;5064007;28;20449;-73
2021/12/17 16:33:42;;;;;;;7.60;2.83;;;20.90;80.10;;;;;;5078358;28;20537;-73
2021/12/17 16:36:10;;;;;;;9.55;2.67;;;20.90;80.20;;;;;;5077886;28;20044;-73
2021/12/17 16:38:37;;;;;;;9.35;2.28;;;20.90;80.20;;;;;;5077622;28;20035;-73
2021/12/17 16:41:05;;;;;;;12.02;2.70;;;20.90;80.10;;;;;;5112009;28;20492;-73
2021/12/17 16:43:33;;;;;;;14.27;2.65;;;20.90;80.10;;;;;;5093632;28;20070;-73
2021/12/17 16:47:01;;;;;;;10.95;3.03;;;20.90;80.30;;;;;;5093941;28;20466;-73
2021/12/17 16:48:52;;;;;;;10.10;2.58;;;20.90;80.20;;;;;;5089055;28;20035;-73
2021/12/17 16:51:20;;;;;;;10.77;2.40;;;20.90;80.20;;;;;;5112077;28;20028;-73
2021/12/17 16:53:48;;;;;;;10.40;2.38;;;20.90;80.10;;;;;;5093907;28;20084;-73
2021/12/17 16:56:16;;;;;;;12.27;2.90;;;20.90;80.10;;;;;;5077253;28;20096;-73
2021/12/17 16:58:43;;;;;;;7.90;2.33;;;20.90;80.30;;;;;;5076049;28;20566;-73
2021/12/17 17:01:10;;;;;;;12.05;2.97;;;20.80;80.40;;;;;;5111625;28;20300;-73
2021/12/17 17:03:37;;;;;;;6.75;2.40;;;20.80;80.30;;;;;;5111259;28;20039;-73
2021/12/17 17:06:05;;;;;;;10.82;2.53;;;20.80;80.40;;;;;;5112299;28;20028;-73
2021/12/17 17:08:32;;;;;;;13.70;2.63;;;20.80;80.40;;;;;;5111935;28;20045;-73
2021/12/17 17:11:03;;;;;;;8.18;2.55;;;20.80;80.60;;;;;;5092853;28;20023;-73
2021/12/17 17:13:33;;;;;;;10.13;2.70;;;20.80;80.60;;;;;;5092938;28;20028;-73
2021/12/17 17:16:04;;;;;;;11.80;3.67;;;20.80;80.70;;;;;;5077287;28;20026;-73
2021/12/17 17:18:33;;;;;;;16.10;9.38;;;20.80;80.80;;;;;;5111669;28;20437;-73
2021/12/17 17:21:01;;;;;;;12.85;3.45;;;20.80;80.90;;;;;;5084618;28;20114;-73
2021/12/17 17:23:33;;;;;;;14.85;4.15;;;20.70;80.90;;;;;;5093346;28;20581;-73
2021/12/17 17:26:01;;;;;;;9.85;3.22;;;20.80;80.80;;;;;;5076902;28;20024;-73
2021/12/17 17:28:28;;;;;;;10.23;2.63;;;20.70;80.90;;;;;;5111479;28;20032;-72
2021/12/17 17:30:55;;;;;;;11.07;3.13;;;20.80;81.00;;;;;;5101070;28;20051;-72
2021/12/17 17:33:24;;;;;;;9.90;2.70;;;20.70;80.90;;;;;;5111386;28;20031;-73
2021/12/17 17:35:52;;;;;;;9.25;2.50;;;20.70;80.90;;;;;;5093583;28;20411;-72
2021/12/17 17:38:19;;;;;;;6.32;2.38;;;20.80;80.90;;;;;;5111321;28;20055;-72
2021/12/17 17:40:46;;;;;;;14.23;2.80;;;20.70;80.90;;;;;;5093165;28;20512;-72
2021/12/17 17:43:15;;;;;;;10.57;2.97;;;20.70;80.90;;;;;;5093622;28;20088;-73
2021/12/17 17:45:42;;;;;;;9.57;2.60;;;20.70;81.00;;;;;;5111226;28;20032;-72
2021/12/17 17:48:11;;;;;;;11.13;2.95;;;20.70;81.00;;;;;;5110516;28;20031;-73
2021/12/17 17:50:39;;;;;;;9.80;2.38;;;20.70;81.10;;;;;;5110383;28;20027;-72
2021/12/17 17:53:07;;;;;;;6.05;2.38;;;20.70;80.90;;;;;;5111015;28;20055;-72
2021/12/17 17:55:38;;;;;;;9.77;2.50;;;20.70;81.00;;;;;;5076745;28;20039;-72
2021/12/17 17:58:06;;;;;;;10.45;2.75;;;20.70;81.00;;;;;;5093822;28;20043;-72
2021/12/17 18:00:33;;;;;;;8.82;2.45;;;20.70;81.10;;;;;;5092782;28;20023;-72
2021/12/17 18:03:00;;;;;;;13.30;3.35;;;20.60;81.10;;;;;;5072837;28;20044;-73
2021/12/17 18:05:27;;;;;;;9.25;2.20;;;20.60;81.20;;;;;;5090176;28;20393;-72
2021/12/17 18:07:55;;;;;;;9.32;2.50;;;20.60;81.20;;;;;;5111109;28;20028;-72
2021/12/17 18:10:22;;;;;;;8.48;2.17;;;20.60;81.20;;;;;;5111012;28;20035;-72
2021/12/17 18:12:54;;;;;;;9.43;2.40;;;20.60;81.30;;;;;;5092716;28;20032;-72
2021/12/17 18:15:22;;;;;;;8.00;2.33;;;20.60;81.50;;;;;;5111210;28;20081;-72
2021/12/17 18:17:50;;;;;;;10.75;2.80;;;20.60;81.60;;;;;;5110737;28;20118;-72
2021/12/17 18:20:19;;;;;;;13.52;2.75;;;20.50;81.60;;;;;;5093272;28;20027;-72
2021/12/17 18:22:47;;;;;;;8.80;2.78;;;20.50;81.40;;;;;;5110858;28;20039;-73
2021/12/17 18:25:14;;;;;;;8.68;2.35;;;20.50;81.60;;;;;;5094494;28;20046;-72
2021/12/17 18:27:42;;;;;;;10.15;2.55;;;20.50;81.60;;;;;;5115342;28;20044;-73
2021/12/17 18:30:10;;;;;;;11.15;2.67;;;20.60;81.40;;;;;;5096696;28;20031;-72
2021/12/17 18:32:38;;;;;;;9.50;2.92;;;20.60;81.50;;;;;;5096674;28;20051;-72
2021/12/17 18:35:07;;;;;;;10.57;2.28;;;20.60;81.50;;;;;;5096506;28;20035;-72
2021/12/17 18:37:34;;;;;;;9.93;2.65;;;20.50;81.60;;;;;;5096652;28;20035;-72
2021/12/17 18:40:05;;;;;;;9.00;2.90;;;20.50;81.60;;;;;;5096727;28;20464;-73
2021/12/17 18:45:17;;;;;;;10.35;2.83;;;20.60;81.70;;;;;;5111759;28;20450;-73
2021/12/17 18:47:44;;;;;;;8.77;2.88;;;20.60;81.70;;;;;;5113846;28;20036;-73
2021/12/17 18:50:11;;;;;;;10.13;2.60;;;20.60;81.70;;;;;;5096330;28;20441;-73
2021/12/17 18:52:38;;;;;;;10.45;2.45;;;20.60;81.80;;;;;;5096196;28;20504;-73
2021/12/17 18:55:06;;;;;;;11.45;2.72;;;20.60;81.60;;;;;;5065987;28;20043;-73
2021/12/17 18:57:33;;;;;;;10.05;3.08;;;20.60;81.70;;;;;;5074612;28;20120;-74
2021/12/17 19:00:01;;;;;;;10.48;2.45;;;20.70;81.50;;;;;;5093976;28;20081;-77
2021/12/17 19:02:28;;;;;;;8.65;2.95;;;20.70;81.50;;;;;;5090545;28;20119;-74
2021/12/17 19:04:55;;;;;;;10.32;2.47;;;20.70;81.50;;;;;;5095435;28;20118;-73
2021/12/17 19:07:22;;;;;;;11.60;2.47;;;20.70;81.50;;;;;;5114364;28;20098;-73
2021/12/17 19:09:49;;;;;;;12.98;2.50;;;20.70;81.40;;;;;;5113409;28;20038;-73
2021/12/17 19:12:16;;;;;;;14.43;2.90;;;20.80;81.40;;;;;;5113618;28;20111;-76
2021/12/17 19:14:43;;;;;;;11.38;3.03;;;20.80;81.30;;;;;;5113531;28;20028;-73
2021/12/17 19:17:11;;;;;;;9.50;2.83;;;20.70;81.20;;;;;;5095648;28;20039;-73
2021/12/17 19:19:47;;;;;;;10.25;2.80;;;20.80;81.30;;;;;;5113761;28;20438;-73
2021/12/17 19:22:24;;;;;;;11.50;2.55;;;20.80;81.10;;;;;;5113839;28;20107;-73
2021/12/17 19:24:51;;;;;;;12.32;2.70;;;20.80;81.10;;;;;;5113908;28;20032;-73
2021/12/17 19:27:19;;;;;;;9.73;2.70;;;20.90;81.00;;;;;;5113090;28;20143;-73
2021/12/17 19:29:46;;;;;;;12.88;3.05;;;20.90;80.90;;;;;;5113714;28;20477;-73
2021/12/17 19:32:13;;;;;;;8.57;2.70;;;20.90;80.80;;;;;;5113644;28;20450;-72
2021/12/17 19:34:40;;;;;;;11.43;2.78;;;20.90;80.90;;;;;;5113900;28;20032;-73
2021/12/17 19:37:08;;;;;;;12.27;2.60;;;21.00;81.00;;;;;;5111910;28;20047;-73
2021/12/17 19:39:35;;;;;;;15.55;3.63;;;21.00;81.00;;;;;;5113547;28;20040;-73
2021/12/17 19:42:03;;;;;;;11.18;2.67;;;21.10;80.90;;;;;;5113481;28;20028;-73
2021/12/17 19:44:30;;;;;;;7.10;2.30;;;21.30;80.60;;;;;;5074170;28;20082;-73
2021/12/17 19:51:58;;;;;;;13.60;2.78;;;21.80;79.60;;;;;;5092989;28;20028;-72
2021/12/17 19:54:25;;;;;;;13.18;2.85;;;21.80;79.00;;;;;;5069701;28;20039;-71
2021/12/17 19:56:53;;;;;;;11.10;2.45;;;21.80;78.80;;;;;;5094768;28;20112;-72
2021/12/17 19:59:20;;;;;;;9.00;2.70;;;22.00;79.00;;;;;;5078488;28;20024;-72
2021/12/17 20:01:49;;;;;;;11.60;2.78;;;22.10;79.40;;;;;;5094624;28;20035;-72
2021/12/17 20:04:17;;;;;;;7.57;2.20;;;22.10;78.80;;;;;;5112649;28;20039;-72
2021/12/17 20:06:45;;;;;;;6.85;2.28;;;22.20;78.80;;;;;;5095133;28;20062;-72
2021/12/17 20:09:13;;;;;;;12.07;2.92;;;22.20;78.80;;;;;;5113116;28;20035;-72
2021/12/17 20:11:41;;;;;;;14.70;2.65;;;22.20;78.80;;;;;;5095302;28;20035;-72
2021/12/17 20:14:08;;;;;;;7.97;2.50;;;22.20;79.00;;;;;;5094050;28;20115;-73
2021/12/17 20:16:36;;;;;;;7.10;2.33;;;22.30;78.70;;;;;;5112017;28;20465;-74
2021/12/17 20:19:04;;;;;;;12.40;2.70;;;22.30;78.70;;;;;;5111817;28;20031;-70
2021/12/17 20:21:31;;;;;;;7.57;2.58;;;22.40;78.90;;;;;;5111824;28;20195;-72
2021/12/17 20:23:58;;;;;;;6.82;2.13;;;22.50;78.90;;;;;;5112229;28;20031;-72
2021/12/17 20:26:25;;;;;;;8.30;2.83;;;22.50;78.60;;;;;;5094064;28;20165;-77
2021/12/17 20:28:54;;;;;;;6.38;2.67;;;22.50;78.60;;;;;;5077142;28;20405;-76
2021/12/17 20:31:22;;;;;;;6.95;2.28;;;22.50;78.40;;;;;;5112278;28;20031;-76
2021/12/17 20:33:50;;;;;;;9.40;2.88;;;22.50;78.30;;;;;;5093972;28;20035;-77
2021/12/17 20:36:18;;;;;;;8.35;2.63;;;22.50;78.00;;;;;;5076837;28;20039;-77
2021/12/17 20:38:46;;;;;;;8.45;2.60;;;22.50;77.70;;;;;;5094304;28;20477;-77
2021/12/17 20:41:13;;;;;;;11.32;3.03;;;22.40;77.90;;;;;;5078945;28;20028;-74
2021/12/17 20:43:46;;;;;;;7.22;2.10;;;22.40;78.00;;;;;;5073379;28;20036;-71
2021/12/17 20:46:15;;;;;;;8.73;2.75;;;22.40;77.90;;;;;;5092320;28;20082;-74
2021/12/17 20:48:42;;;;;;;9.65;2.50;;;22.40;77.80;;;;;;5094045;28;20050;-74
2021/12/17 20:51:10;;;;;;;10.45;2.65;;;22.40;77.70;;;;;;5077357;28;20024;-73
2021/12/17 20:53:37;;;;;;;9.20;2.25;;;22.50;77.80;;;;;;5111460;28;20057;-73
2021/12/17 20:56:05;;;;;;;8.10;2.60;;;22.50;77.90;;;;;;5111411;28;20038;-73
2021/12/17 20:58:32;;;;;;;6.70;2.50;;;22.60;78.40;;;;;;5111893;28;20501;-73
2021/12/17 21:00:59;;;;;;;14.18;2.70;;;22.70;78.40;;;;;;5111248;28;20088;-78
2021/12/17 21:03:26;;;;;;;13.63;3.50;;;22.80;78.30;;;;;;5110898;28;20049;-71
2021/12/17 21:05:54;;;;;;;10.48;2.78;;;22.80;78.30;;;;;;5111152;28;20069;-75